Bluefin — WDE9397 — position and weather

sailwx.info

Track history (hours):
 
Tides and Currents Weather Stations Pressure Air Temp Water Temp Dewpoint Dewpoint Depression Visibility Wind Speed Wind Dir Waves Ship Positions

Bluefin

Owner: Penn Maritime Inc., SEATTLE, WA. More information available from US FCC via Universal Licensing System and Coast Guard Vessel Documentation Center.

Last reported at 2015-Mar-29 10:31 UTC. Time now 2015-Mar-29 10:37 UTC.
Position N 40°40' W 074°02'.

Length 166 m; draft 7.5 m.

Type: Towing. MMSI: 367416750.

Date/timePositionNaut miles runAvg speedWind from/ knotsBaromVisibWave heightAir tempDewpointWater temp
2015-Mar-29 10:31N 40°40' W 074°02'0 0.0
2015-Mar-29 09:31N 40°40' W 074°02'0 0.0
2015-Mar-29 08:31N 40°40' W 074°02'0 0.0
2015-Mar-29 07:31N 40°40' W 074°02'0 0.0
2015-Mar-29 06:31N 40°40' W 074°02'0 0.0
2015-Mar-29 05:31N 40°40' W 074°02'0 0.0
2015-Mar-29 04:31N 40°40' W 074°02'0 0.0
2015-Mar-29 03:31N 40°40' W 074°02'0 0.0
2015-Mar-29 02:31N 40°40' W 074°02'0 0.0
2015-Mar-29 01:31N 40°40' W 074°02'0 0.0
2015-Mar-29 00:31N 40°40' W 074°02'0 0.0
2015-Mar-28 23:31N 40°40' W 074°02'0 0.0
2015-Mar-28 22:31N 40°40' W 074°02'0 0.0
2015-Mar-28 21:31N 40°40' W 074°02'0 0.0
2015-Mar-28 20:31N 40°40' W 074°02'0 0.0
2015-Mar-28 19:31N 40°40' W 074°02'0 0.0
2015-Mar-28 18:31N 40°40' W 074°02'0 0.0
2015-Mar-28 17:31N 40°40' W 074°02'0 0.0
2015-Mar-28 16:31N 40°40' W 074°02'0 0.0
2015-Mar-28 15:28N 40°40' W 074°02'0 0.0
2015-Mar-28 14:31N 40°40' W 074°02'0 0.0
2015-Mar-28 13:31N 40°40' W 074°02'0 0.0
2015-Mar-28 12:31N 40°40' W 074°02'0 0.0
2015-Mar-28 11:31N 40°40' W 074°02'0 0.0
2015-Mar-28 10:31N 40°40' W 074°02'0 0.0
2015-Mar-28 09:31N 40°40' W 074°02'0 0.0
2015-Mar-28 08:31N 40°40' W 074°02'0 0.0
2015-Mar-28 07:31N 40°40' W 074°02'0 0.0
2015-Mar-28 06:31N 40°40' W 074°02'0 0.0
2015-Mar-28 05:31N 40°40' W 074°02'0 0.0
2015-Mar-28 04:31N 40°40' W 074°02'0 0.0
2015-Mar-28 03:31N 40°40' W 074°02'6 6.4
2015-Mar-28 02:32N 40°38' W 074°10'0 0.0
2015-Mar-28 01:29N 40°39' W 074°10'0 0.0
2015-Mar-28 00:29N 40°39' W 074°10'0 0.0
2015-Mar-27 23:32N 40°39' W 074°10'1 0.7
2015-Mar-27 22:33N 40°38' W 074°09'6 5.4
2015-Mar-27 21:31N 40°40' W 074°02'0 0.1
2015-Mar-27 20:31N 40°40' W 074°02'0 0.1
2015-Mar-27 19:31N 40°40' W 074°02'0 0.0
2015-Mar-27 18:31N 40°40' W 074°02'0 0.0
2015-Mar-27 17:31N 40°40' W 074°02'0 0.1
2015-Mar-27 16:31N 40°40' W 074°02'0 0.0
2015-Mar-27 15:31N 40°40' W 074°02'0 0.0
2015-Mar-27 14:31N 40°40' W 074°02'0 0.0
2015-Mar-27 13:28N 40°40' W 074°02'0 0.0
2015-Mar-27 12:28N 40°40' W 074°02'0 0.0
2015-Mar-27 11:28N 40°40' W 074°02'0 0.0
2015-Mar-27 10:28N 40°40' W 074°02'0 0.0
2015-Mar-27 09:22N 40°40' W 074°02'0 0.0
2015-Mar-27 08:28N 40°40' W 074°02'0 0.1
2015-Mar-27 07:28N 40°40' W 074°02'0 0.0
2015-Mar-27 06:28N 40°40' W 074°02'0 0.0
2015-Mar-27 05:28N 40°40' W 074°02'0 0.1
2015-Mar-27 04:22N 40°40' W 074°02'1 0.7
2015-Mar-27 03:33N 40°40' W 074°03'3 2.5
2015-Mar-27 02:32N 40°39' W 074°06'0 0.0
2015-Mar-27 01:32N 40°39' W 074°06'0 0.0
2015-Mar-27 00:26N 40°39' W 074°06'0 0.0
2015-Mar-26 23:32N 40°39' W 074°06'0 0.0
2015-Mar-26 22:32N 40°39' W 074°06'0 0.0
2015-Mar-26 21:26N 40°39' W 074°06'0 0.0
2015-Mar-26 20:32N 40°39' W 074°06'0 0.0
2015-Mar-26 19:26N 40°39' W 074°06'0 0.0
2015-Mar-26 18:32N 40°39' W 074°06'0 0.0
2015-Mar-26 17:08N 40°39' W 074°06'0 0.1
2015-Mar-26 16:32N 40°39' W 074°06'0 0.0
2015-Mar-26 15:32N 40°39' W 074°06'0 0.0
2015-Mar-26 14:33N 40°39' W 074°06'0 0.0
2015-Mar-26 13:29N 40°39' W 074°06'0 0.1
2015-Mar-26 12:33N 40°39' W 074°05'6 5.4
2015-Mar-26 11:31N 40°37' W 074°12'4 2.2
2015-Mar-26 09:31N 40°33' W 074°15'0 0.0
2015-Mar-26 06:06N 40°33' W 074°15'0 0.0
2015-Mar-26 05:27N 40°33' W 074°15'0 0.0
2015-Mar-26 03:15N 40°33' W 074°15'0 0.0
2015-Mar-26 02:33N 40°33' W 074°15'0 0.0
2015-Mar-26 01:32N 40°33' W 074°15'0 0.0
2015-Mar-26 00:32N 40°33' W 074°15'0 0.0
2015-Mar-25 23:33N 40°33' W 074°15'0 0.0
2015-Mar-25 22:33N 40°33' W 074°15'0 0.0
2015-Mar-25 21:33N 40°33' W 074°15'0 0.0
2015-Mar-25 20:33N 40°33' W 074°15'0 0.0
2015-Mar-25 19:33N 40°33' W 074°15'0 0.0
2015-Mar-25 18:33N 40°33' W 074°15'0 0.0
2015-Mar-25 17:31N 40°33' W 074°15'0 0.4
2015-Mar-25 16:33N 40°33' W 074°15'7 6.7
2015-Mar-25 15:34N 40°39' W 074°11'1 0.9
2015-Mar-25 14:33N 40°39' W 074°10'0 0.0
2015-Mar-25 13:33N 40°39' W 074°10'7 3.3
2015-Mar-25 11:24N 40°33' W 074°15'5 5.9
2015-Mar-25 10:33N 40°37' W 074°12'6 5.8
2015-Mar-25 09:33N 40°39' W 074°05'3 2.6
2015-Mar-25 08:33N 40°40' W 074°02'0 0.0
2015-Mar-25 07:33N 40°40' W 074°02'0 0.1
2015-Mar-25 06:33N 40°40' W 074°02'0 0.0
2015-Mar-25 05:33N 40°40' W 074°02'0 0.0
2015-Mar-25 04:33N 40°40' W 074°02'0 0.0
2015-Mar-25 03:33N 40°40' W 074°02'0 0.0
2015-Mar-25 02:33N 40°40' W 074°02'0 0.0
2015-Mar-25 01:34N 40°40' W 074°02'0 0.1
2015-Mar-25 00:33N 40°40' W 074°02'0 0.1
2015-Mar-24 23:33N 40°40' W 074°02'0 0.0
2015-Mar-24 22:33N 40°40' W 074°02'0 0.0
2015-Mar-24 21:33N 40°40' W 074°02'0 0.0
2015-Mar-24 20:33N 40°40' W 074°02'0 0.0
2015-Mar-24 19:33N 40°40' W 074°02'0 0.0
2015-Mar-24 18:33N 40°40' W 074°02'0 0.1
2015-Mar-24 17:33N 40°40' W 074°02'0 0.0
2015-Mar-24 16:33N 40°40' W 074°02'0 0.0
2015-Mar-24 15:33N 40°40' W 074°02'0 0.1
2015-Mar-24 14:33N 40°40' W 074°02'0 0.1
2015-Mar-24 13:33N 40°40' W 074°02'0 0.0
2015-Mar-24 12:33N 40°40' W 074°02'4 3.8
2015-Mar-24 11:33N 40°43' W 073°58'6 5.9
2015-Mar-24 10:33N 40°48' W 073°54'0 0.0
2015-Mar-24 09:33N 40°48' W 073°54'0 0.0
2015-Mar-24 08:32N 40°48' W 073°54'0 0.0
2015-Mar-24 07:33N 40°48' W 073°54'0 0.0
2015-Mar-24 06:33N 40°48' W 073°54'0 0.0
2015-Mar-24 05:33N 40°48' W 073°54'0 0.0
2015-Mar-24 04:33N 40°48' W 073°54'0 0.0
2015-Mar-24 03:33N 40°48' W 073°54'0 0.0
2015-Mar-24 02:16N 40°48' W 073°54'0 0.0
2015-Mar-24 01:28N 40°48' W 073°54'0 0.0
2015-Mar-24 00:29N 40°48' W 073°54'0 0.0
2015-Mar-23 23:33N 40°48' W 073°54'0 0.2
2015-Mar-23 22:23N 40°48' W 073°54'0 0.0
2015-Mar-23 20:29N 40°48' W 073°54'0 0.0
2015-Mar-23 11:19N 40°48' W 073°54'4 5.2
2015-Mar-23 10:33N 40°45' W 073°58'7 7.4
2015-Mar-23 09:33N 40°39' W 074°03'2 1.6
2015-Mar-23 08:33N 40°39' W 074°05'0 0.0
2015-Mar-23 07:32N 40°39' W 074°06'0 0.0
2015-Mar-23 06:20N 40°39' W 074°06'0 0.0
2015-Mar-23 05:26N 40°39' W 074°06'0 0.0
2015-Mar-23 04:32N 40°39' W 074°06'0 0.0
2015-Mar-23 03:32N 40°39' W 074°06'0 0.0
2015-Mar-23 02:26N 40°39' W 074°06'0 0.0
2015-Mar-23 01:32N 40°39' W 074°06'0 0.0
2015-Mar-23 00:26N 40°39' W 074°06'0 0.0
2015-Mar-22 23:32N 40°39' W 074°06'0 0.0
2015-Mar-22 22:32N 40°39' W 074°06'0 0.0
2015-Mar-22 21:32N 40°39' W 074°06'0 0.0
2015-Mar-22 20:32N 40°39' W 074°06'0 0.0
2015-Mar-22 19:32N 40°39' W 074°06'0 0.0
2015-Mar-22 18:32N 40°39' W 074°06'0 0.0
2015-Mar-22 17:32N 40°39' W 074°06'0 0.0
2015-Mar-22 16:32N 40°39' W 074°06'0 0.0
2015-Mar-22 15:32N 40°39' W 074°06'0 0.0
2015-Mar-22 14:32N 40°39' W 074°06'0 0.0
2015-Mar-22 13:32N 40°39' W 074°06'0 0.0
2015-Mar-22 12:32N 40°39' W 074°06'0 0.0
2015-Mar-22 11:32N 40°39' W 074°06'0 0.0
2015-Mar-22 10:32N 40°39' W 074°06'0 0.0
2015-Mar-22 09:32N 40°39' W 074°06'0 0.0
2015-Mar-22 08:32N 40°39' W 074°06'0 0.0
2015-Mar-22 07:32N 40°39' W 074°06'0 0.0
2015-Mar-22 06:32N 40°39' W 074°06'0 0.0
2015-Mar-22 05:32N 40°39' W 074°06'0 0.0
2015-Mar-22 04:32N 40°39' W 074°06'0 0.0
2015-Mar-22 03:32N 40°39' W 074°06'0 0.0
2015-Mar-22 02:29N 40°39' W 074°05'3 3.0
2015-Mar-22 01:33N 40°40' W 074°02'0 0.0
2015-Mar-22 00:33N 40°40' W 074°02'0 0.1
2015-Mar-21 23:33N 40°40' W 074°02'0 0.1
2015-Mar-21 22:33N 40°40' W 074°02'0 0.1
2015-Mar-21 21:33N 40°40' W 074°02'0 0.0
2015-Mar-21 20:33N 40°40' W 074°02'0 0.0
2015-Mar-21 19:33N 40°40' W 074°02'0 0.0
2015-Mar-21 18:33N 40°40' W 074°02'0 0.0
2015-Mar-21 17:34N 40°40' W 074°02'0 0.0
2015-Mar-21 16:33N 40°40' W 074°02'0 0.2
2015-Mar-21 15:33N 40°40' W 074°02'7 7.1
2015-Mar-21 14:33N 40°39' W 074°11'9 0.3
2015-Mar-20 01:28N 40°31' W 074°18'2 1.3
2015-Mar-20 00:15N 40°30' W 074°16'4 4.5
2015-Mar-19 23:27N 40°33' W 074°13'6 6.5
2015-Mar-19 22:33N 40°39' W 074°10'6 6.2
2015-Mar-19 21:33N 40°39' W 074°02'0 0.1
2015-Mar-19 20:33N 40°39' W 074°02'0 0.1
2015-Mar-19 19:33N 40°39' W 074°02'0 0.0
2015-Mar-19 18:33N 40°39' W 074°02'0 0.0
2015-Mar-19 17:33N 40°39' W 074°02'0 0.0
2015-Mar-19 16:33N 40°39' W 074°02'0 0.0
2015-Mar-19 15:33N 40°39' W 074°02'0 0.0
2015-Mar-19 14:33N 40°39' W 074°02'0 0.0
2015-Mar-19 13:33N 40°39' W 074°02'0 0.1
2015-Mar-19 12:33N 40°39' W 074°02'0 0.0
2015-Mar-19 11:33N 40°39' W 074°02'0 0.0
2015-Mar-19 10:33N 40°39' W 074°02'0 0.0
2015-Mar-19 09:33N 40°39' W 074°02'  
Track history (hours):
 
Tides and Currents Weather Stations Pressure Air Temp Water Temp Dewpoint Dewpoint Depression Visibility Wind Speed Wind Dir Waves Ship Positions

Bluefin

Owner: Penn Maritime Inc., SEATTLE, WA. More information available from US FCC via Universal Licensing System and Coast Guard Vessel Documentation Center.

Last reported at 2015-Mar-29 10:31 UTC. Time now 2015-Mar-29 10:37 UTC.
Position N 40°40' W 074°02'.

Length 166 m; draft 7.5 m.

Type: Towing. MMSI: 367416750.

Date/timePositionNaut miles runAvg speedWind from/ knotsBaromVisibWave heightAir tempDewpointWater temp
2015-Mar-29 10:31N 40°40' W 074°02'0 0.0
2015-Mar-29 09:31N 40°40' W 074°02'0 0.0
2015-Mar-29 08:31N 40°40' W 074°02'0 0.0
2015-Mar-29 07:31N 40°40' W 074°02'0 0.0
2015-Mar-29 06:31N 40°40' W 074°02'0 0.0
2015-Mar-29 05:31N 40°40' W 074°02'0 0.0
2015-Mar-29 04:31N 40°40' W 074°02'0 0.0
2015-Mar-29 03:31N 40°40' W 074°02'0 0.0
2015-Mar-29 02:31N 40°40' W 074°02'0 0.0
2015-Mar-29 01:31N 40°40' W 074°02'0 0.0
2015-Mar-29 00:31N 40°40' W 074°02'0 0.0
2015-Mar-28 23:31N 40°40' W 074°02'0 0.0
2015-Mar-28 22:31N 40°40' W 074°02'0 0.0
2015-Mar-28 21:31N 40°40' W 074°02'0 0.0
2015-Mar-28 20:31N 40°40' W 074°02'0 0.0
2015-Mar-28 19:31N 40°40' W 074°02'0 0.0
2015-Mar-28 18:31N 40°40' W 074°02'0 0.0
2015-Mar-28 17:31N 40°40' W 074°02'0 0.0
2015-Mar-28 16:31N 40°40' W 074°02'0 0.0
2015-Mar-28 15:28N 40°40' W 074°02'0 0.0
2015-Mar-28 14:31N 40°40' W 074°02'0 0.0
2015-Mar-28 13:31N 40°40' W 074°02'0 0.0
2015-Mar-28 12:31N 40°40' W 074°02'0 0.0
2015-Mar-28 11:31N 40°40' W 074°02'0 0.0
2015-Mar-28 10:31N 40°40' W 074°02'0 0.0
2015-Mar-28 09:31N 40°40' W 074°02'0 0.0
2015-Mar-28 08:31N 40°40' W 074°02'0 0.0
2015-Mar-28 07:31N 40°40' W 074°02'0 0.0
2015-Mar-28 06:31N 40°40' W 074°02'0 0.0
2015-Mar-28 05:31N 40°40' W 074°02'0 0.0
2015-Mar-28 04:31N 40°40' W 074°02'0 0.0
2015-Mar-28 03:31N 40°40' W 074°02'6 6.4
2015-Mar-28 02:32N 40°38' W 074°10'0 0.0
2015-Mar-28 01:29N 40°39' W 074°10'0 0.0
2015-Mar-28 00:29N 40°39' W 074°10'0 0.0
2015-Mar-27 23:32N 40°39' W 074°10'1 0.7
2015-Mar-27 22:33N 40°38' W 074°09'6 5.4
2015-Mar-27 21:31N 40°40' W 074°02'0 0.1
2015-Mar-27 20:31N 40°40' W 074°02'0 0.1
2015-Mar-27 19:31N 40°40' W 074°02'0 0.0
2015-Mar-27 18:31N 40°40' W 074°02'0 0.0
2015-Mar-27 17:31N 40°40' W 074°02'0 0.1
2015-Mar-27 16:31N 40°40' W 074°02'0 0.0
2015-Mar-27 15:31N 40°40' W 074°02'0 0.0
2015-Mar-27 14:31N 40°40' W 074°02'0 0.0
2015-Mar-27 13:28N 40°40' W 074°02'0 0.0
2015-Mar-27 12:28N 40°40' W 074°02'0 0.0
2015-Mar-27 11:28N 40°40' W 074°02'0 0.0
2015-Mar-27 10:28N 40°40' W 074°02'0 0.0
2015-Mar-27 09:22N 40°40' W 074°02'0 0.0
2015-Mar-27 08:28N 40°40' W 074°02'0 0.1
2015-Mar-27 07:28N 40°40' W 074°02'0 0.0
2015-Mar-27 06:28N 40°40' W 074°02'0 0.0
2015-Mar-27 05:28N 40°40' W 074°02'0 0.1
2015-Mar-27 04:22N 40°40' W 074°02'1 0.7
2015-Mar-27 03:33N 40°40' W 074°03'3 2.5
2015-Mar-27 02:32N 40°39' W 074°06'0 0.0
2015-Mar-27 01:32N 40°39' W 074°06'0 0.0
2015-Mar-27 00:26N 40°39' W 074°06'0 0.0
2015-Mar-26 23:32N 40°39' W 074°06'0 0.0
2015-Mar-26 22:32N 40°39' W 074°06'0 0.0
2015-Mar-26 21:26N 40°39' W 074°06'0 0.0
2015-Mar-26 20:32N 40°39' W 074°06'0 0.0
2015-Mar-26 19:26N 40°39' W 074°06'0 0.0
2015-Mar-26 18:32N 40°39' W 074°06'0 0.0
2015-Mar-26 17:08N 40°39' W 074°06'0 0.1
2015-Mar-26 16:32N 40°39' W 074°06'0 0.0
2015-Mar-26 15:32N 40°39' W 074°06'0 0.0
2015-Mar-26 14:33N 40°39' W 074°06'0 0.0
2015-Mar-26 13:29N 40°39' W 074°06'0 0.1
2015-Mar-26 12:33N 40°39' W 074°05'6 5.4
2015-Mar-26 11:31N 40°37' W 074°12'4 2.2
2015-Mar-26 09:31N 40°33' W 074°15'0 0.0
2015-Mar-26 06:06N 40°33' W 074°15'0 0.0
2015-Mar-26 05:27N 40°33' W 074°15'0 0.0
2015-Mar-26 03:15N 40°33' W 074°15'0 0.0
2015-Mar-26 02:33N 40°33' W 074°15'0 0.0
2015-Mar-26 01:32N 40°33' W 074°15'0 0.0
2015-Mar-26 00:32N 40°33' W 074°15'0 0.0
2015-Mar-25 23:33N 40°33' W 074°15'0 0.0
2015-Mar-25 22:33N 40°33' W 074°15'0 0.0
2015-Mar-25 21:33N 40°33' W 074°15'0 0.0
2015-Mar-25 20:33N 40°33' W 074°15'0 0.0
2015-Mar-25 19:33N 40°33' W 074°15'0 0.0
2015-Mar-25 18:33N 40°33' W 074°15'0 0.0
2015-Mar-25 17:31N 40°33' W 074°15'0 0.4
2015-Mar-25 16:33N 40°33' W 074°15'7 6.7
2015-Mar-25 15:34N 40°39' W 074°11'1 0.9
2015-Mar-25 14:33N 40°39' W 074°10'0 0.0
2015-Mar-25 13:33N 40°39' W 074°10'7 3.3
2015-Mar-25 11:24N 40°33' W 074°15'5 5.9
2015-Mar-25 10:33N 40°37' W 074°12'6 5.8
2015-Mar-25 09:33N 40°39' W 074°05'3 2.6
2015-Mar-25 08:33N 40°40' W 074°02'0 0.0
2015-Mar-25 07:33N 40°40' W 074°02'0 0.1
2015-Mar-25 06:33N 40°40' W 074°02'0 0.0
2015-Mar-25 05:33N 40°40' W 074°02'0 0.0
2015-Mar-25 04:33N 40°40' W 074°02'0 0.0
2015-Mar-25 03:33N 40°40' W 074°02'0 0.0
2015-Mar-25 02:33N 40°40' W 074°02'0 0.0
2015-Mar-25 01:34N 40°40' W 074°02'0 0.1
2015-Mar-25 00:33N 40°40' W 074°02'0 0.1
2015-Mar-24 23:33N 40°40' W 074°02'0 0.0
2015-Mar-24 22:33N 40°40' W 074°02'0 0.0
2015-Mar-24 21:33N 40°40' W 074°02'0 0.0
2015-Mar-24 20:33N 40°40' W 074°02'0 0.0
2015-Mar-24 19:33N 40°40' W 074°02'0 0.0
2015-Mar-24 18:33N 40°40' W 074°02'0 0.1
2015-Mar-24 17:33N 40°40' W 074°02'0 0.0
2015-Mar-24 16:33N 40°40' W 074°02'0 0.0
2015-Mar-24 15:33N 40°40' W 074°02'0 0.1
2015-Mar-24 14:33N 40°40' W 074°02'0 0.1
2015-Mar-24 13:33N 40°40' W 074°02'0 0.0
2015-Mar-24 12:33N 40°40' W 074°02'4 3.8
2015-Mar-24 11:33N 40°43' W 073°58'6 5.9
2015-Mar-24 10:33N 40°48' W 073°54'0 0.0
2015-Mar-24 09:33N 40°48' W 073°54'0 0.0
2015-Mar-24 08:32N 40°48' W 073°54'0 0.0
2015-Mar-24 07:33N 40°48' W 073°54'0 0.0
2015-Mar-24 06:33N 40°48' W 073°54'0 0.0
2015-Mar-24 05:33N 40°48' W 073°54'0 0.0
2015-Mar-24 04:33N 40°48' W 073°54'0 0.0
2015-Mar-24 03:33N 40°48' W 073°54'0 0.0
2015-Mar-24 02:16N 40°48' W 073°54'0 0.0
2015-Mar-24 01:28N 40°48' W 073°54'0 0.0
2015-Mar-24 00:29N 40°48' W 073°54'0 0.0
2015-Mar-23 23:33N 40°48' W 073°54'0 0.2
2015-Mar-23 22:23N 40°48' W 073°54'0 0.0
2015-Mar-23 20:29N 40°48' W 073°54'0 0.0
2015-Mar-23 11:19N 40°48' W 073°54'4 5.2
2015-Mar-23 10:33N 40°45' W 073°58'7 7.4
2015-Mar-23 09:33N 40°39' W 074°03'2 1.6
2015-Mar-23 08:33N 40°39' W 074°05'0 0.0
2015-Mar-23 07:32N 40°39' W 074°06'0 0.0
2015-Mar-23 06:20N 40°39' W 074°06'0 0.0
2015-Mar-23 05:26N 40°39' W 074°06'0 0.0
2015-Mar-23 04:32N 40°39' W 074°06'0 0.0
2015-Mar-23 03:32N 40°39' W 074°06'0 0.0
2015-Mar-23 02:26N 40°39' W 074°06'0 0.0
2015-Mar-23 01:32N 40°39' W 074°06'0 0.0
2015-Mar-23 00:26N 40°39' W 074°06'0 0.0
2015-Mar-22 23:32N 40°39' W 074°06'0 0.0
2015-Mar-22 22:32N 40°39' W 074°06'0 0.0
2015-Mar-22 21:32N 40°39' W 074°06'0 0.0
2015-Mar-22 20:32N 40°39' W 074°06'0 0.0
2015-Mar-22 19:32N 40°39' W 074°06'0 0.0
2015-Mar-22 18:32N 40°39' W 074°06'0 0.0
2015-Mar-22 17:32N 40°39' W 074°06'0 0.0
2015-Mar-22 16:32N 40°39' W 074°06'0 0.0
2015-Mar-22 15:32N 40°39' W 074°06'0 0.0
2015-Mar-22 14:32N 40°39' W 074°06'0 0.0
2015-Mar-22 13:32N 40°39' W 074°06'0 0.0
2015-Mar-22 12:32N 40°39' W 074°06'0 0.0
2015-Mar-22 11:32N 40°39' W 074°06'0 0.0
2015-Mar-22 10:32N 40°39' W 074°06'0 0.0
2015-Mar-22 09:32N 40°39' W 074°06'0 0.0
2015-Mar-22 08:32N 40°39' W 074°06'0 0.0
2015-Mar-22 07:32N 40°39' W 074°06'0 0.0
2015-Mar-22 06:32N 40°39' W 074°06'0 0.0
2015-Mar-22 05:32N 40°39' W 074°06'0 0.0
2015-Mar-22 04:32N 40°39' W 074°06'0 0.0
2015-Mar-22 03:32N 40°39' W 074°06'0 0.0
2015-Mar-22 02:29N 40°39' W 074°05'3 3.0
2015-Mar-22 01:33N 40°40' W 074°02'0 0.0
2015-Mar-22 00:33N 40°40' W 074°02'0 0.1
2015-Mar-21 23:33N 40°40' W 074°02'0 0.1
2015-Mar-21 22:33N 40°40' W 074°02'0 0.1
2015-Mar-21 21:33N 40°40' W 074°02'0 0.0
2015-Mar-21 20:33N 40°40' W 074°02'0 0.0
2015-Mar-21 19:33N 40°40' W 074°02'0 0.0
2015-Mar-21 18:33N 40°40' W 074°02'0 0.0
2015-Mar-21 17:34N 40°40' W 074°02'0 0.0
2015-Mar-21 16:33N 40°40' W 074°02'0 0.2
2015-Mar-21 15:33N 40°40' W 074°02'7 7.1
2015-Mar-21 14:33N 40°39' W 074°11'9 0.3
2015-Mar-20 01:28N 40°31' W 074°18'2 1.3
2015-Mar-20 00:15N 40°30' W 074°16'4 4.5
2015-Mar-19 23:27N 40°33' W 074°13'6 6.5
2015-Mar-19 22:33N 40°39' W 074°10'6 6.2
2015-Mar-19 21:33N 40°39' W 074°02'0 0.1
2015-Mar-19 20:33N 40°39' W 074°02'0 0.1
2015-Mar-19 19:33N 40°39' W 074°02'0 0.0
2015-Mar-19 18:33N 40°39' W 074°02'0 0.0
2015-Mar-19 17:33N 40°39' W 074°02'0 0.0
2015-Mar-19 16:33N 40°39' W 074°02'0 0.0
2015-Mar-19 15:33N 40°39' W 074°02'0 0.0
2015-Mar-19 14:33N 40°39' W 074°02'0 0.0
2015-Mar-19 13:33N 40°39' W 074°02'0 0.1
2015-Mar-19 12:33N 40°39' W 074°02'0 0.0
2015-Mar-19 11:33N 40°39' W 074°02'0 0.0
2015-Mar-19 10:33N 40°39' W 074°02'0 0.0
2015-Mar-19 09:33N 40°39' W 074°02'  

Dump ship's entire track history